KJST

John Murtha Johnstown-Cambria Co Airport

Johnstown, Pennsylvania, USA
METAR KJST 211427Z AUTO 16006KT 10SM SCT020 19/13 A3024 RMK AO2 T01940133
Observed Flight Rules
May-21 @ 14:27 UTC (32 minutes ago) Visual Flight Rules
Wind Visibility Clouds
160° at 6 knots 10 miles
  • Scattered at 2,000' AGL
Temperatures Readings
Current 19°C / 66°F
Dewpoint 13°C / 55°F
Humidity 68%
Altimeter 30.24" Hg
Pressure 1024 hPa
Elevation 694
METAR KJST 211427Z AUTO 16006KT 10SM SCT020 19/13 A3024 RMK AO2 T01940133
Observed Flight Rules
May-21 @ 14:27 UTC
(32 minutes ago)
VFR
Wind Visibility
160° at 6 knots 10 miles
Clouds
  • Scattered at 2,000' AGL
Temperature Dewpoint
19°C / 66°F 13°C / 55°F
Humidity Altimeter Pressure
68% 30.24" Hg 1024 hPa